EJA647 KBVY-KLKP
Flight info
| Callsign | EJA647 |
|---|---|
| Flight time | N/A |
| Altitude | 28000 |
| Route | HYLND MANCH BTV |
| Aircraft | CL60/M-SBDE1E2E3FGHIJ1J4J5J7M3RWXYZ/LB1V1D1 |
Departure
| Time | N/A |
|---|---|
| Airport | Beverly Regional Airport (KBVY) |
Arrival
| Time | 2026-05-08 02:44 |
|---|---|
| Airport | Lake Placid Airport (KLKP) |
| Time | Latitude | Longitude | Altitude | Speed | Heading |
|---|---|---|---|---|---|
| 2026-05-08 02:34 | 44.35846 | -74.21689 | 6041 ft | 207 kts | 269° |
| 2026-05-08 02:34 | 44.35763 | -74.23656 | 5755 ft | 205 kts | 270° |
| 2026-05-08 02:34 | 44.35679 | -74.25635 | 5483 ft | 201 kts | 269° |
| 2026-05-08 02:34 | 44.35597 | -74.27578 | 5227 ft | 197 kts | 270° |
| 2026-05-08 02:35 | 44.35517 | -74.29474 | 5005 ft | 193 kts | 269° |
| 2026-05-08 02:35 | 44.35374 | -74.31318 | 4969 ft | 195 kts | 264° |
| 2026-05-08 02:35 | 44.35149 | -74.33181 | 4961 ft | 195 kts | 264° |
| 2026-05-08 02:35 | 44.34921 | -74.35077 | 4963 ft | 196 kts | 264° |
| 2026-05-08 02:36 | 44.34698 | -74.36935 | 4965 ft | 195 kts | 264° |
| 2026-05-08 02:36 | 44.34472 | -74.38812 | 4964 ft | 195 kts | 263° |
| 2026-05-08 02:36 | 44.34248 | -74.40672 | 4966 ft | 194 kts | 263° |
| 2026-05-08 02:36 | 44.34116 | -74.42553 | 4959 ft | 192 kts | 281° |
| 2026-05-08 02:37 | 44.34779 | -74.44132 | 4958 ft | 192 kts | 319° |
| 2026-05-08 02:37 | 44.36000 | -74.44893 | 4970 ft | 199 kts | 348° |
| 2026-05-08 02:37 | 44.37412 | -74.44656 | 4976 ft | 209 kts | 19° |
| 2026-05-08 02:37 | 44.38555 | -74.43333 | 4967 ft | 221 kts | 54° |
| 2026-05-08 02:38 | 44.38903 | -74.41222 | 4971 ft | 229 kts | 98° |
| 2026-05-08 02:38 | 44.38391 | -74.39103 | 4983 ft | 231 kts | 114° |
| 2026-05-08 02:38 | 44.37762 | -74.37032 | 4971 ft | 231 kts | 112° |
| 2026-05-08 02:38 | 44.37145 | -74.34931 | 4979 ft | 231 kts | 112° |
| 2026-05-08 02:39 | 44.36540 | -74.32856 | 4973 ft | 232 kts | 112° |
| 2026-05-08 02:39 | 44.35928 | -74.30747 | 4970 ft | 232 kts | 112° |
| 2026-05-08 02:39 | 44.35335 | -74.28618 | 4980 ft | 249 kts | 110° |
| 2026-05-08 02:39 | 44.34672 | -74.26143 | 4948 ft | 274 kts | 110° |
| 2026-05-08 02:40 | 44.34037 | -74.23748 | 4971 ft | 254 kts | 110° |
| 2026-05-08 02:40 | 44.33445 | -74.21507 | 5000 ft | 235 kts | 110° |
| 2026-05-08 02:40 | 44.32900 | -74.19450 | 5023 ft | 218 kts | 110° |
| 2026-05-08 02:40 | 44.32381 | -74.17489 | 5011 ft | 211 kts | 109° |
| 2026-05-08 02:41 | 44.31871 | -74.15558 | 4943 ft | 213 kts | 110° |
| 2026-05-08 02:41 | 44.31356 | -74.13573 | 4581 ft | 221 kts | 109° |
| 2026-05-08 02:41 | 44.30846 | -74.11599 | 4285 ft | 214 kts | 109° |
| 2026-05-08 02:41 | 44.30346 | -74.09668 | 3947 ft | 207 kts | 109° |
| 2026-05-08 02:42 | 44.29865 | -74.07808 | 3598 ft | 198 kts | 109° |
| 2026-05-08 02:42 | 44.29425 | -74.06109 | 3350 ft | 175 kts | 109° |
| 2026-05-08 02:42 | 44.29033 | -74.04594 | 3115 ft | 157 kts | 109° |
| 2026-05-08 02:42 | 44.28679 | -74.03229 | 2869 ft | 142 kts | 109° |
| 2026-05-08 02:43 | 44.28348 | -74.01952 | 2644 ft | 144 kts | 110° |
| 2026-05-08 02:43 | 44.28014 | -74.00667 | 2419 ft | 139 kts | 109° |
| 2026-05-08 02:43 | 44.27689 | -73.99399 | 2303 ft | 139 kts | 109° |
| 2026-05-08 02:43 | 44.27353 | -73.98120 | 2088 ft | 139 kts | 113° |
| 2026-05-08 02:44 | 44.26865 | -73.96990 | 1839 ft | 136 kts | 128° |
| 2026-05-08 02:44 | 44.26345 | -73.95984 | 1727 ft | 100 kts | 124° |
| 2026-05-08 02:44 | 44.26158 | -73.95622 | 1704 ft | 16 kts | 125° |
| 2026-05-08 02:44 | 44.26121 | -73.95574 | 1701 ft | 5 kts | 293° |
| 2026-05-08 02:45 | 44.26156 | -73.95626 | 1704 ft | 8 kts | 302° |
| 2026-05-08 02:45 | 44.26198 | -73.95705 | 1710 ft | 11 kts | 307° |
| 2026-05-08 02:45 | 44.26254 | -73.95810 | 1717 ft | 14 kts | 306° |
| 2026-05-08 02:45 | 44.26312 | -73.95923 | 1723 ft | 14 kts | 305° |
| 2026-05-08 02:46 | 44.26371 | -73.96036 | 1729 ft | 14 kts | 306° |
| 2026-05-08 02:46 | 44.26427 | -73.96166 | 1734 ft | 13 kts | 268° |
| 2026-05-08 02:46 | 44.26421 | -73.96252 | 1737 ft | 7 kts | 262° |
| 2026-05-08 02:46 | 44.26413 | -73.96336 | 1739 ft | 9 kts | 263° |
| 2026-05-08 02:47 | 44.26405 | -73.96437 | 1741 ft | 11 kts | 263° |
| 2026-05-08 02:47 | 44.26398 | -73.96545 | 1742 ft | 8 kts | 289° |
| 2026-05-08 02:47 | 44.26437 | -73.96603 | 1742 ft | 6 kts | 323° |
| 2026-05-08 02:47 | 44.26457 | -73.96606 | 1741 ft | 0 kts | 19° |